Time;durP1;ratioP1;P1;durP2;ratioP2;P2;SDS_P1;SDS_P2;PMS_P1;PMS_P2;Temp;Humidity;BMP_temperature;BMP_pressure;BME280_temperature;BME280_humidity;BME280_pressure;Samples;Min_cycle;Max_cycle;Signal;HPM_P1;HPM_P2
2022/06/30 00:00:12;;;;;;;12.63;7.10;;;;;;;15.28;83.07;93693.13;5044015;28;20055;-58
2022/06/30 00:02:40;;;;;;;8.80;6.40;;;;;;;15.27;82.75;93692.38;5034633;28;20048;-58
2022/06/30 00:05:07;;;;;;;9.20;6.45;;;;;;;15.23;82.53;93696.47;5052009;28;20118;-57
2022/06/30 00:07:34;;;;;;;9.40;6.88;;;;;;;15.21;82.61;93690.59;5049947;28;20045;-57
2022/06/30 00:10:01;;;;;;;9.45;6.35;;;;;;;15.21;82.70;93693.38;5048565;28;20123;-58
2022/06/30 00:12:28;;;;;;;10.50;6.60;;;;;;;15.16;82.73;93692.72;5051020;28;20880;-57
2022/06/30 00:14:54;;;;;;;10.00;6.73;;;;;;;15.10;83.48;93685.47;5049424;28;20043;-57
2022/06/30 00:17:21;;;;;;;11.05;6.45;;;;;;;14.97;84.08;93686.31;5051367;28;20043;-58
2022/06/30 00:19:48;;;;;;;10.07;6.90;;;;;;;14.97;83.97;93689.09;5051207;28;20354;-57
2022/06/30 00:22:15;;;;;;;10.20;6.75;;;;;;;15.00;83.67;93684.66;5051223;28;20051;-57
2022/06/30 00:24:41;;;;;;;10.02;6.43;;;;;;;15.00;83.44;93687.41;5050853;28;20067;-58
2022/06/30 00:27:08;;;;;;;9.13;6.53;;;;;;;15.01;83.34;93699.22;5050028;28;20067;-58
2022/06/30 00:29:35;;;;;;;11.07;7.60;;;;;;;14.96;83.27;93684.00;5050723;28;20064;-58
2022/06/30 00:32:02;;;;;;;10.45;7.35;;;;;;;14.96;83.50;93681.25;5051164;28;20041;-58
2022/06/30 00:34:29;;;;;;;9.95;6.57;;;;;;;14.91;83.63;93687.31;5045496;28;20540;-55
2022/06/30 00:36:56;;;;;;;9.70;6.68;;;;;;;14.91;83.58;93688.13;5051011;28;20044;-57
2022/06/30 00:39:23;;;;;;;10.50;6.53;;;;;;;14.90;83.32;93680.28;5051181;28;20118;-57
2022/06/30 00:41:50;;;;;;;11.88;7.00;;;;;;;14.84;83.40;93685.59;5050886;28;20045;-58
2022/06/30 00:44:16;;;;;;;10.20;6.95;;;;;;;14.82;83.81;93679.00;5041541;28;20042;-57
2022/06/30 00:46:44;;;;;;;9.05;6.47;;;;;;;14.80;83.81;93695.25;5006449;28;20052;-57
2022/06/30 00:49:11;;;;;;;9.82;7.03;;;;;;;14.65;84.97;93681.13;5021297;28;20604;-60
2022/06/30 00:51:37;;;;;;;9.37;6.90;;;;;;;14.56;85.44;93682.59;5048366;28;20680;-57
2022/06/30 00:54:06;;;;;;;10.57;7.22;;;;;;;14.56;85.51;93679.84;5035198;28;20052;-56
2022/06/30 00:56:34;;;;;;;12.48;8.50;;;;;;;14.60;85.11;93676.19;5049829;28;20045;-58
2022/06/30 00:59:04;;;;;;;15.00;9.50;;;;;;;14.58;84.89;93682.94;5050558;28;20049;-57
2022/06/30 01:01:32;;;;;;;14.30;8.98;;;;;;;14.56;84.80;93690.13;5040645;28;20050;-57
2022/06/30 01:04:00;;;;;;;10.00;7.20;;;;;;;14.53;85.10;93691.75;5045304;28;20036;-57
2022/06/30 01:06:28;;;;;;;11.43;7.20;;;;;;;14.51;85.32;93685.16;5049603;28;20049;-57
2022/06/30 01:08:55;;;;;;;10.77;7.00;;;;;;;14.49;84.96;93688.34;5050707;28;20041;-57
2022/06/30 01:14:07;;;;;;;10.48;6.93;;;;;;;14.42;85.24;93687.81;5029618;28;20471;-58
2022/06/30 01:16:37;;;;;;;9.50;6.80;;;;;;;14.32;85.80;93684.19;5029765;28;20333;-57
2022/06/30 01:19:04;;;;;;;11.55;7.53;;;;;;;14.29;86.68;93687.88;5019653;28;20054;-57
2022/06/30 01:21:31;;;;;;;12.35;7.30;;;;;;;14.32;86.63;93686.97;5026900;28;20049;-57
2022/06/30 01:23:58;;;;;;;10.13;7.18;;;;;;;14.33;86.08;93691.28;5030564;28;20041;-56
2022/06/30 01:26:27;;;;;;;9.65;6.93;;;;;;;14.30;85.87;93681.88;5030210;28;20048;-58
2022/06/30 01:28:55;;;;;;;11.53;7.43;;;;;;;14.29;85.78;93682.34;5002017;28;21603;-57
2022/06/30 01:31:23;;;;;;;126.05;72.97;;;;;;;14.27;85.42;93688.31;5020487;28;20445;-58
2022/06/30 01:33:50;;;;;;;36.65;21.98;;;;;;;14.26;85.61;93683.97;5020041;28;20060;-58
2022/06/30 01:36:17;;;;;;;12.32;7.72;;;;;;;14.21;85.62;93678.28;5044833;28;20072;-57
2022/06/30 01:38:44;;;;;;;9.35;6.72;;;;;;;14.20;85.90;93674.72;5049759;28;20080;-57
2022/06/30 01:41:12;;;;;;;10.70;7.20;;;;;;;14.21;85.80;93672.75;5049918;28;20041;-58
2022/06/30 01:43:39;;;;;;;9.73;6.82;;;;;;;14.17;85.56;93672.88;5045076;28;20046;-56
2022/06/30 01:46:06;;;;;;;12.20;7.50;;;;;;;14.15;85.82;93672.53;5029943;28;20039;-55
2022/06/30 01:48:33;;;;;;;11.13;7.60;;;;;;;14.09;86.18;93666.03;5032792;28;20045;-54
2022/06/30 01:50:59;;;;;;;9.90;6.68;;;;;;;14.05;85.87;93663.41;5044103;28;20105;-57
2022/06/30 01:53:26;;;;;;;10.57;6.90;;;;;;;14.04;85.99;93659.06;5026309;28;20107;-57
2022/06/30 01:55:53;;;;;;;11.43;7.10;;;;;;;14.04;86.20;93653.56;5042993;28;20414;-57
2022/06/30 01:58:20;;;;;;;9.82;6.70;;;;;;;14.01;86.25;93665.50;5029531;28;20045;-54
2022/06/30 02:00:46;;;;;;;9.75;6.78;;;;;;;13.95;86.02;93665.28;5004566;28;20486;-56
2022/06/30 02:03:13;;;;;;;11.30;6.93;;;;;;;13.89;86.50;93661.53;5008306;28;20042;-56
2022/06/30 02:05:41;;;;;;;10.43;7.30;;;;;;;13.88;86.87;93661.97;5021383;28;20079;-58
2022/06/30 02:08:07;;;;;;;13.60;7.53;;;;;;;13.81;86.92;93664.97;5029293;28;20037;-53
2022/06/30 02:10:34;;;;;;;9.98;7.30;;;;;;;13.79;86.59;93668.94;5027753;28;20059;-58
2022/06/30 02:13:01;;;;;;;9.35;7.15;;;;;;;13.82;86.84;93675.53;5029518;28;20037;-57
2022/06/30 02:15:32;;;;;;;20.95;13.30;;;;;;;13.76;87.69;93667.06;5017897;28;20044;-56
2022/06/30 02:18:02;;;;;;;13.70;8.47;;;;;;;13.52;89.47;93654.81;5021523;28;20049;-58
2022/06/30 02:20:29;;;;;;;11.30;7.85;;;;;;;13.43;89.86;93655.47;5037600;28;20045;-57
2022/06/30 02:22:59;;;;;;;12.77;8.60;;;;;;;13.50;89.71;93660.00;5049102;28;20493;-57
2022/06/30 02:25:27;;;;;;;11.20;7.88;;;;;;;13.54;89.18;93649.63;5049097;28;20076;-56
2022/06/30 02:27:54;;;;;;;12.35;8.90;;;;;;;13.56;90.25;93648.00;5028414;28;20056;-57
2022/06/30 02:30:21;;;;;;;12.53;8.50;;;;;;;13.59;89.59;93652.63;5029077;28;20041;-58
2022/06/30 02:32:48;;;;;;;12.90;8.90;;;;;;;13.58;89.07;93645.56;5026773;28;20044;-55
2022/06/30 02:35:15;;;;;;;12.57;8.35;;;;;;;13.58;89.35;93647.53;5026035;28;20051;-57
2022/06/30 02:37:42;;;;;;;11.50;8.38;;;;;;;13.53;89.57;93648.09;5028257;28;20049;-57
2022/06/30 02:40:10;;;;;;;11.00;8.20;;;;;;;13.50;89.52;93647.00;5029322;28;20048;-57
2022/06/30 02:42:37;;;;;;;12.50;8.37;;;;;;;13.49;89.48;93647.44;5028272;28;20388;-57
2022/06/30 02:45:05;;;;;;;13.27;8.25;;;;;;;13.45;90.07;93655.06;5029017;28;20091;-57
2022/06/30 02:47:33;;;;;;;11.98;8.02;;;;;;;13.31;89.70;93651.50;5028422;28;20049;-57
2022/06/30 02:50:03;;;;;;;10.88;7.90;;;;;;;13.32;89.86;93639.28;5029185;28;20041;-57
2022/06/30 02:52:34;;;;;;;10.98;7.90;;;;;;;13.34;89.33;93642.38;5020546;28;20052;-56
2022/06/30 02:55:02;;;;;;;11.00;7.93;;;;;;;13.35;89.02;93643.91;5023958;28;20155;-57
2022/06/30 02:57:30;;;;;;;12.77;7.38;;;;;;;13.34;88.96;93641.56;5028495;28;20042;-57
2022/06/30 02:59:57;;;;;;;12.90;7.82;;;;;;;13.32;88.86;93644.00;5028788;28;20041;-56
2022/06/30 03:02:23;;;;;;;11.07;7.70;;;;;;;13.31;89.22;93647.97;5028569;28;20041;-57
2022/06/30 03:04:50;;;;;;;10.85;7.95;;;;;;;13.30;88.39;93649.19;5027508;28;20406;-57
2022/06/30 03:07:17;;;;;;;10.90;7.70;;;;;;;13.26;88.42;93648.50;5044021;28;20037;-55
2022/06/30 03:09:44;;;;;;;33.50;19.50;;;;;;;13.25;88.39;93646.97;5046063;28;20418;-59
2022/06/30 03:12:11;;;;;;;33.70;20.95;;;;;;;13.18;88.17;93645.97;5048908;28;20581;-57
2022/06/30 03:14:38;;;;;;;15.85;9.20;;;;;;;13.11;88.94;93651.66;5047920;28;20382;-56
2022/06/30 03:17:04;;;;;;;13.07;8.35;;;;;;;13.09;89.26;93634.81;5043008;28;20041;-57
2022/06/30 03:19:31;;;;;;;12.33;8.17;;;;;;;13.11;89.19;93640.66;5040192;28;20049;-57
2022/06/30 03:21:58;;;;;;;11.80;8.60;;;;;;;13.10;89.48;93635.56;5045888;28;20512;-54
2022/06/30 03:24:25;;;;;;;12.40;8.88;;;;;;;13.09;89.57;93632.06;5036896;28;20122;-58
2022/06/30 03:26:52;;;;;;;11.95;8.30;;;;;;;13.08;89.05;93633.28;5031856;28;20048;-57
2022/06/30 03:29:18;;;;;;;10.93;8.65;;;;;;;13.07;89.15;93631.72;5031072;28;20045;-56
2022/06/30 03:31:45;;;;;;;12.23;8.60;;;;;;;13.06;89.50;93630.19;5021877;28;20050;-56
2022/06/30 03:34:12;;;;;;;11.68;8.50;;;;;;;13.06;89.55;93635.69;5022197;28;20083;-54
2022/06/30 03:36:39;;;;;;;11.90;8.80;;;;;;;13.00;90.09;93626.44;5008725;28;20057;-56
2022/06/30 03:39:05;;;;;;;13.02;8.90;;;;;;;12.93;90.82;93623.88;5009435;28;20067;-57
2022/06/30 03:41:32;;;;;;;13.50;8.68;;;;;;;12.93;90.66;93626.63;5026605;28;20071;-58
2022/06/30 03:43:59;;;;;;;13.37;8.00;;;;;;;12.90;90.53;93620.03;5021867;28;20045;-56
2022/06/30 03:46:26;;;;;;;12.90;8.88;;;;;;;12.94;89.86;93625.44;5027065;28;20038;-55
2022/06/30 03:48:53;;;;;;;14.30;9.10;;;;;;;12.97;90.10;93619.78;5048612;28;20664;-57
2022/06/30 03:51:19;;;;;;;13.00;9.18;;;;;;;13.01;90.05;93613.41;5051820;28;20049;-56
2022/06/30 03:53:46;;;;;;;14.38;9.48;;;;;;;13.03;90.37;93620.03;5051409;28;20045;-57
2022/06/30 03:56:13;;;;;;;12.97;9.10;;;;;;;13.08;89.97;93616.75;5052175;28;20053;-59
2022/06/30 03:58:40;;;;;;;14.90;9.48;;;;;;;13.06;90.34;93610.91;5050889;28;20501;-58
2022/06/30 04:01:07;;;;;;;14.30;10.27;;;;;;;13.04;90.54;93613.31;5040329;28;20112;-55
2022/06/30 04:03:34;;;;;;;15.25;9.82;;;;;;;13.02;90.80;93615.75;5045128;28;20041;-56
2022/06/30 04:06:00;;;;;;;14.10;9.52;;;;;;;12.96;90.32;93617.50;5038342;28;20071;-57
2022/06/30 04:08:27;;;;;;;15.87;9.83;;;;;;;12.95;90.22;93624.19;5051114;28;20043;-60
2022/06/30 04:10:54;;;;;;;13.27;9.93;;;;;;;12.77;90.74;93630.22;5041816;28;20055;-56
2022/06/30 04:13:21;;;;;;;12.88;9.30;;;;;;;12.86;90.56;93627.63;5051643;28;20416;-54
2022/06/30 04:15:47;;;;;;;14.32;9.38;;;;;;;12.97;90.21;93630.81;5051224;28;20039;-55
2022/06/30 04:18:14;;;;;;;16.80;10.52;;;;;;;13.00;90.14;93637.44;5042339;28;20037;-57
2022/06/30 04:20:41;;;;;;;14.87;10.63;;;;;;;13.14;89.74;93637.03;5046206;28;20049;-57
2022/06/30 04:23:08;;;;;;;14.93;10.30;;;;;;;13.19;89.97;93633.72;5050800;28;20049;-55
2022/06/30 04:25:35;;;;;;;17.15;11.20;;;;;;;13.04;91.67;93629.84;5045127;28;20171;-57
2022/06/30 04:28:01;;;;;;;17.42;11.05;;;;;;;13.21;91.00;93619.50;5031102;28;20042;-56
2022/06/30 04:33:14;;;;;;;14.40;10.13;;;;;;;16.91;78.84;93619.75;5033784;28;20110;-58
2022/06/30 04:35:41;;;;;;;13.23;9.13;;;;;;;18.87;67.73;93622.69;5036198;28;20494;-59
2022/06/30 04:38:08;;;;;;;12.65;8.73;;;;;;;18.64;64.86;93621.47;5050860;28;20056;-57
2022/06/30 04:43:20;;;;;;;11.63;8.25;;;;;;;18.17;67.43;93632.16;5043635;28;20041;-57
2022/06/30 04:45:47;;;;;;;11.63;8.43;;;;;;;17.48;69.11;93627.50;5017176;28;20070;-57
2022/06/30 04:48:14;;;;;;;10.10;8.25;;;;;;;17.05;70.71;93629.44;5020449;28;20068;-57
2022/06/30 04:50:41;;;;;;;13.98;9.15;;;;;;;16.64;72.71;93637.13;5030179;28;20172;-57
2022/06/30 04:53:08;;;;;;;13.45;8.50;;;;;;;16.38;74.08;93623.59;5030656;28;20048;-57
2022/06/30 04:55:35;;;;;;;10.70;8.50;;;;;;;16.16;75.50;93623.72;5028761;28;20491;-58
2022/06/30 04:58:02;;;;;;;13.57;8.60;;;;;;;16.00;76.88;93610.13;5025393;28;20052;-57
2022/06/30 05:00:32;;;;;;;13.07;8.75;;;;;;;15.82;78.19;93616.41;5007425;28;20049;-57
2022/06/30 05:02:59;;;;;;;14.73;8.80;;;;;;;15.76;79.17;93605.19;5043343;28;20059;-57
2022/06/30 05:05:26;;;;;;;16.25;8.85;;;;;;;15.66;80.13;93606.34;5050095;28;20051;-58
2022/06/30 05:07:53;;;;;;;13.23;8.80;;;;;;;15.70;80.62;93609.75;5029342;28;21174;-58
2022/06/30 05:10:20;;;;;;;13.87;9.83;;;;;;;15.11;83.42;93606.84;5015899;28;20045;-59
2022/06/30 05:12:47;;;;;;;15.48;9.45;;;;;;;14.55;85.30;93605.72;5004428;28;20054;-57
2022/06/30 05:15:14;;;;;;;13.02;9.73;;;;;;;14.44;86.30;93611.59;5022779;28;20045;-57
2022/06/30 05:17:40;;;;;;;13.25;9.35;;;;;;;14.71;85.47;93608.31;5029234;28;20053;-57
2022/06/30 05:20:08;;;;;;;13.68;8.75;;;;;;;16.22;80.23;93610.03;5039034;28;20045;-57
2022/06/30 05:22:35;;;;;;;12.20;8.63;;;;;;;19.68;66.83;93596.53;5049326;28;20049;-58
2022/06/30 05:27:47;;;;;;;9.55;7.40;;;;;;;23.04;54.14;93597.88;5049339;28;20048;-58
2022/06/30 05:30:15;;;;;;;9.85;7.00;;;;;;;24.87;49.67;93596.75;5049974;28;20405;-58
2022/06/30 05:32:43;;;;;;;8.30;6.75;;;;;;;26.03;46.86;93597.03;5048029;28;20053;-59
2022/06/30 05:35:10;;;;;;;9.63;6.77;;;;;;;25.84;46.48;93600.50;5032229;28;20037;-58
2022/06/30 05:37:37;;;;;;;9.27;6.80;;;;;;;25.66;46.74;93593.47;5047175;28;20052;-58
2022/06/30 05:40:05;;;;;;;9.10;6.70;;;;;;;27.09;43.93;93589.47;5049788;28;20057;-59
2022/06/30 05:42:32;;;;;;;8.13;6.25;;;;;;;27.98;41.53;93597.19;5047301;28;20045;-60
2022/06/30 05:44:59;;;;;;;7.72;6.30;;;;;;;28.29;41.06;93589.22;5042292;28;20051;-59
2022/06/30 05:47:26;;;;;;;9.23;5.77;;;;;;;27.69;41.22;93582.75;5043632;28;20071;-58
2022/06/30 05:49:52;;;;;;;9.00;5.82;;;;;;;27.29;42.74;93593.84;5048620;28;20618;-59
2022/06/30 05:52:19;;;;;;;8.25;5.80;;;;;;;26.55;43.94;93587.56;5049209;28;20045;-58
2022/06/30 05:54:47;;;;;;;7.00;5.90;;;;;;;26.97;43.15;93590.94;5048605;28;20052;-59
2022/06/30 05:57:13;;;;;;;7.80;5.88;;;;;;;26.77;44.18;93580.94;5049643;28;20057;-60
2022/06/30 05:59:40;;;;;;;7.17;5.87;;;;;;;29.96;38.29;93579.88;5048614;28;20056;-59
2022/06/30 06:02:07;;;;;;;7.80;5.20;;;;;;;30.81;36.47;93581.25;5030395;28;20401;-61
2022/06/30 06:04:35;;;;;;;7.80;5.50;;;;;;;30.74;35.68;93581.22;5019081;28;20091;-59
2022/06/30 06:07:03;;;;;;;7.03;5.47;;;;;;;31.29;35.07;93575.28;5038697;28;20044;-59
2022/06/30 06:09:30;;;;;;;9.15;5.53;;;;;;;31.72;33.66;93568.06;5039395;28;20045;-59
2022/06/30 06:11:57;;;;;;;8.00;5.50;;;;;;;30.40;36.58;93565.88;5013149;28;20042;-59
2022/06/30 06:14:24;;;;;;;9.45;5.85;;;;;;;29.78;38.01;93561.00;5016034;28;20344;-59
2022/06/30 06:16:51;;;;;;;8.20;5.50;;;;;;;29.32;38.79;93560.50;5028668;28;20071;-60
2022/06/30 06:19:18;;;;;;;7.22;5.30;;;;;;;28.76;40.01;93560.38;5023706;28;20417;-59
2022/06/30 06:21:49;;;;;;;9.05;5.35;;;;;;;29.55;39.31;93563.59;5028642;28;20221;-60
2022/06/30 06:24:17;;;;;;;7.80;5.13;;;;;;;31.50;35.89;93561.00;5029097;28;20088;-59
2022/06/30 06:26:45;;;;;;;9.52;4.95;;;;;;;33.59;32.45;93562.34;5027186;28;20058;-61
2022/06/30 06:29:14;;;;;;;8.38;5.03;;;;;;;33.31;32.41;93560.56;5029127;28;20095;-59
2022/06/30 06:31:42;;;;;;;6.13;4.82;;;;;;;33.64;32.01;93564.22;5046466;28;20059;-61
2022/06/30 06:34:09;;;;;;;7.60;5.13;;;;;;;32.14;33.82;93564.16;5034458;28;20041;-59
2022/06/30 06:36:39;;;;;;;7.20;5.10;;;;;;;30.82;35.98;93565.78;5028322;28;20392;-58
2022/06/30 06:39:06;;;;;;;7.82;5.20;;;;;;;30.63;36.78;93577.38;5041509;28;20045;-59
2022/06/30 06:41:33;;;;;;;7.00;4.97;;;;;;;30.57;37.75;93571.13;5048209;28;20048;-58
2022/06/30 06:44:00;;;;;;;6.93;5.22;;;;;;;33.12;32.75;93561.78;5049124;28;20409;-59
2022/06/30 06:46:27;;;;;;;6.97;5.20;;;;;;;34.02;31.55;93561.13;5048496;28;20041;-57
2022/06/30 06:49:04;;;;;;;7.27;4.97;;;;;;;34.20;31.65;93570.50;5048803;28;20051;-59
2022/06/30 06:51:31;;;;;;;6.78;4.90;;;;;;;34.92;30.06;93559.44;5046702;28;20146;-59
2022/06/30 06:53:58;;;;;;;6.45;5.00;;;;;;;34.23;30.46;93562.91;5028798;28;20048;-58
2022/06/30 06:56:26;;;;;;;9.07;5.00;;;;;;;35.74;29.27;93560.41;5029302;28;20041;-58
2022/06/30 06:58:59;;;;;;;6.60;4.93;;;;;;;34.66;30.34;93560.84;5009363;28;20951;-57
2022/06/30 07:01:27;;;;;;;8.50;4.83;;;;;;;35.97;28.80;93545.03;5013969;28;20044;-57
2022/06/30 07:03:54;;;;;;;7.05;4.93;;;;;;;34.16;31.07;93553.06;5015909;28;20046;-57
2022/06/30 07:06:21;;;;;;;8.05;4.90;;;;;;;34.38;31.27;93545.69;5019074;28;20093;-59
2022/06/30 07:08:48;;;;;;;8.38;5.00;;;;;;;36.30;28.61;93545.50;5017053;28;20056;-58
2022/06/30 07:11:15;;;;;;;6.13;4.68;;;;;;;37.32;27.29;93541.00;5005448;28;20708;-58
2022/06/30 07:13:41;;;;;;;6.00;4.30;;;;;;;38.65;25.79;93543.19;5028056;28;20041;-58
2022/06/30 07:16:08;;;;;;;6.20;4.43;;;;;;;37.85;26.46;93543.34;5028607;28;20049;-58
2022/06/30 07:18:35;;;;;;;8.95;4.50;;;;;;;38.39;25.56;93542.84;5025797;28;20053;-58
2022/06/30 07:21:01;;;;;;;5.70;4.00;;;;;;;38.13;25.23;93542.53;5025431;28;20091;-58
2022/06/30 07:23:28;;;;;;;5.75;3.60;;;;;;;39.33;23.24;93537.75;5022667;28;20050;-58
2022/06/30 07:25:57;;;;;;;5.87;3.90;;;;;;;38.54;23.89;93541.75;5020353;28;20050;-58
2022/06/30 07:28:25;;;;;;;6.15;3.72;;;;;;;38.98;24.69;93539.69;5031223;28;20045;-58
2022/06/30 07:31:12;;;;;;;5.78;3.85;;;;;;;39.48;23.01;93539.47;5044966;28;20428;-58
2022/06/30 07:33:42;;;;;;;6.07;4.10;;;;;;;38.40;24.20;93544.38;5051356;28;20052;-58
2022/06/30 07:36:09;;;;;;;6.25;3.72;;;;;;;39.79;22.55;93540.66;5038294;28;20531;-59
2022/06/30 07:38:36;;;;;;;5.67;3.40;;;;;;;38.23;23.34;93536.00;5051431;28;20149;-58
2022/06/30 07:41:03;;;;;;;6.85;3.45;;;;;;;39.03;22.78;93535.72;5052554;28;20049;-58
2022/06/30 07:43:29;;;;;;;6.00;3.60;;;;;;;36.73;25.28;93545.19;5051821;28;20033;-58
2022/06/30 07:45:56;;;;;;;8.80;4.00;;;;;;;32.24;31.89;93556.59;5052053;28;20380;-58
2022/06/30 07:48:23;;;;;;;6.65;3.78;;;;;;;31.41;33.38;93550.94;5052318;28;20041;-58
2022/06/30 07:50:50;;;;;;;7.50;4.30;;;;;;;30.46;34.88;93549.53;5051545;28;20049;-59
2022/06/30 07:53:17;;;;;;;7.03;4.32;;;;;;;31.94;32.87;93543.88;5050771;28;20098;-57
2022/06/30 07:55:43;;;;;;;7.90;4.95;;;;;;;29.77;37.45;93556.69;5037181;28;20052;-57
2022/06/30 07:58:10;;;;;;;7.18;4.90;;;;;;;29.46;38.04;93542.22;5051826;28;20053;-59
2022/06/30 08:00:37;;;;;;;6.30;4.80;;;;;;;30.78;35.76;93537.03;5050771;28;20051;-58
2022/06/30 08:03:04;;;;;;;7.33;4.63;;;;;;;31.49;35.13;93538.88;5051791;28;20047;-58
2022/06/30 08:05:30;;;;;;;9.63;4.82;;;;;;;31.74;34.43;93531.38;5049961;28;21528;-57
2022/06/30 08:07:57;;;;;;;6.85;4.70;;;;;;;32.39;34.35;93527.41;5037603;28;20056;-58
2022/06/30 08:10:24;;;;;;;5.90;4.68;;;;;;;33.01;31.91;93528.06;5034895;28;20720;-57
2022/06/30 08:12:51;;;;;;;6.70;4.47;;;;;;;32.15;33.44;93532.34;5030818;28;20049;-58
2022/06/30 08:15:18;;;;;;;6.20;4.40;;;;;;;32.83;32.03;93536.44;5035107;28;20045;-58
2022/06/30 08:17:44;;;;;;;7.88;4.38;;;;;;;35.26;28.76;93528.69;5037907;28;20052;-58
2022/06/30 08:20:11;;;;;;;6.85;4.22;;;;;;;36.04;27.63;93518.47;5037636;28;20482;-58
2022/06/30 08:22:38;;;;;;;7.00;4.13;;;;;;;32.12;33.64;93522.16;5038174;28;20453;-57
2022/06/30 08:25:05;;;;;;;6.97;4.55;;;;;;;31.67;34.51;93512.25;5044843;28;20045;-58
2022/06/30 08:27:32;;;;;;;7.47;4.73;;;;;;;29.50;37.41;93519.25;5030948;28;20052;-58
2022/06/30 08:29:59;;;;;;;7.25;4.43;;;;;;;32.84;32.37;93512.38;5045712;28;20041;-59
2022/06/30 08:32:26;;;;;;;10.20;4.80;;;;;;;32.29;32.62;93517.97;5051216;28;20036;-58
2022/06/30 08:34:53;;;;;;;8.13;4.53;;;;;;;31.92;33.76;93506.03;5043442;28;20686;-57
2022/06/30 08:37:19;;;;;;;8.35;4.40;;;;;;;33.42;30.50;93506.84;5050032;28;20041;-58
2022/06/30 08:42:32;;;;;;;9.00;4.47;;;;;;;30.99;34.21;93507.91;5050764;28;20045;-57
2022/06/30 08:45:14;;;;;;;7.20;4.07;;;;;;;30.69;34.88;93500.75;5039057;28;20111;-59
2022/06/30 08:47:47;;;;;;;6.97;4.35;;;;;;;31.12;34.21;93513.41;5049727;28;20104;-59
2022/06/30 08:50:17;;;;;;;7.03;4.30;;;;;;;29.06;37.21;93500.69;5051119;28;20417;-59
2022/06/30 08:52:46;;;;;;;7.13;4.20;;;;;;;29.63;36.01;93494.47;5049987;28;20053;-59
2022/06/30 08:55:15;;;;;;;8.93;4.00;;;;;;;33.98;29.73;93488.84;5050962;28;20067;-57
2022/06/30 08:57:45;;;;;;;5.68;3.88;;;;;;;32.87;30.46;93487.00;5050191;28;20076;-57
2022/06/30 09:00:15;;;;;;;6.15;3.70;;;;;;;37.10;25.90;93499.28;5050809;28;20037;-58
2022/06/30 09:02:43;;;;;;;6.65;3.70;;;;;;;36.46;25.91;93488.81;5049931;28;20048;-57
2022/06/30 09:05:10;;;;;;;7.47;3.60;;;;;;;35.66;26.61;93485.53;5050988;28;20415;-58
2022/06/30 09:07:37;;;;;;;5.82;3.20;;;;;;;37.45;25.50;93487.50;5050112;28;20048;-60
2022/06/30 09:10:05;;;;;;;5.57;3.40;;;;;;;32.28;29.53;93490.88;5039581;28;20075;-58
2022/06/30 09:12:32;;;;;;;6.97;3.72;;;;;;;32.62;30.31;93493.31;5030378;28;20048;-58
2022/06/30 09:15:00;;;;;;;7.20;3.30;;;;;;;32.15;30.80;93492.59;5034584;28;20048;-59
2022/06/30 09:17:29;;;;;;;5.07;2.90;;;;;;;34.46;26.18;93485.78;5048654;28;20044;-59
2022/06/30 09:20:09;;;;;;;5.45;3.20;;;;;;;34.65;25.53;93485.22;5036667;28;20642;-58
2022/06/30 09:22:39;;;;;;;5.65;3.20;;;;;;;33.42;26.77;93492.63;5049995;28;20126;-60
2022/06/30 09:25:08;;;;;;;7.28;3.63;;;;;;;33.38;28.40;93492.28;5048980;28;20117;-58
2022/06/30 09:27:38;;;;;;;5.05;3.58;;;;;;;34.17;27.05;93494.03;5038596;28;20053;-58
2022/06/30 09:30:12;;;;;;;6.40;3.60;;;;;;;32.21;29.55;93498.84;5047946;28;20051;-58
2022/06/30 09:32:57;;;;;;;7.78;3.78;;;;;;;31.23;32.19;93490.41;5038596;28;20550;-58
2022/06/30 09:35:30;;;;;;;5.90;3.50;;;;;;;32.20;30.65;93496.59;5049210;28;20059;-59
2022/06/30 09:38:08;;;;;;;5.85;3.60;;;;;;;33.67;28.58;93491.94;5029194;28;20041;-59
2022/06/30 09:41:02;;;;;;;6.32;3.60;;;;;;;34.08;28.37;93492.56;5029594;28;20049;-61
2022/06/30 09:43:37;;;;;;;6.20;3.40;;;;;;;32.38;29.21;93489.00;5028366;28;20049;-58
2022/06/30 09:46:05;;;;;;;6.75;3.80;;;;;;;31.82;30.70;93483.91;5017787;28;20041;-58
2022/06/30 09:48:33;;;;;;;6.05;3.60;;;;;;;33.38;28.59;93485.81;5024893;28;20053;-58
2022/06/30 09:51:03;;;;;;;6.53;3.20;;;;;;;35.18;26.09;93492.44;5029860;28;20075;-58
2022/06/30 09:53:30;;;;;;;9.00;3.53;;;;;;;34.25;26.71;93493.94;5029428;28;20049;-58
2022/06/30 09:56:13;;;;;;;5.40;3.63;;;;;;;34.58;26.63;93489.63;5029578;28;20048;-59
2022/06/30 09:58:42;;;;;;;7.55;3.70;;;;;;;33.03;29.48;93485.59;5029351;28;20046;-58
2022/06/30 10:01:12;;;;;;;8.32;3.92;;;;;;;32.01;29.93;93477.09;5028277;28;20102;-59
2022/06/30 10:03:47;;;;;;;6.45;3.75;;;;;;;33.25;29.18;93475.47;5027553;28;20075;-58
2022/06/30 10:06:16;;;;;;;6.78;3.95;;;;;;;33.14;28.46;93478.75;5029741;28;20359;-58
2022/06/30 10:08:43;;;;;;;5.77;3.50;;;;;;;35.57;25.24;93474.78;5028494;28;20063;-58
2022/06/30 10:11:10;;;;;;;6.32;3.97;;;;;;;35.47;25.65;93480.44;5027484;28;20037;-59
2022/06/30 10:13:40;;;;;;;6.55;3.70;;;;;;;33.37;27.31;93472.94;5048548;28;20473;-59
2022/06/30 10:16:07;;;;;;;6.72;3.30;;;;;;;34.82;26.93;93475.94;5049285;28;20539;-58
2022/06/30 10:18:39;;;;;;;8.32;3.80;;;;;;;34.35;27.43;93472.78;5039534;28;20045;-59
2022/06/30 10:21:08;;;;;;;7.07;3.80;;;;;;;31.44;30.61;93466.81;5030186;28;20083;-58
2022/06/30 10:23:35;;;;;;;9.25;4.22;;;;;;;30.24;32.79;93459.50;5048851;28;20071;-58
2022/06/30 10:26:04;;;;;;;6.60;4.20;;;;;;;30.25;33.80;93470.28;5048723;28;20037;-59
2022/06/30 10:28:31;;;;;;;7.65;3.90;;;;;;;32.82;28.65;93458.22;5048470;28;20053;-57
2022/06/30 10:31:02;;;;;;;6.68;3.53;;;;;;;32.55;29.18;93463.59;5047620;28;20048;-58
2022/06/30 10:33:41;;;;;;;6.30;3.70;;;;;;;31.84;30.91;93467.06;5041663;28;20401;-57
2022/06/30 10:36:21;;;;;;;8.15;4.07;;;;;;;31.29;30.30;93473.22;5042917;28;20428;-57
2022/06/30 10:39:02;;;;;;;6.60;3.70;;;;;;;30.83;30.72;93473.06;5024575;28;20087;-58
2022/06/30 10:41:30;;;;;;;5.90;4.05;;;;;;;30.74;31.06;93468.66;5031975;28;20425;-57
2022/06/30 10:44:05;;;;;;;6.32;4.05;;;;;;;31.00;31.62;93461.97;5029209;28;20080;-59
2022/06/30 10:46:33;;;;;;;5.67;3.87;;;;;;;30.76;31.71;93457.53;5034628;28;20044;-58
2022/06/30 10:49:07;;;;;;;5.70;3.72;;;;;;;31.51;30.67;93451.16;5015120;28;20041;-57
2022/06/30 10:51:34;;;;;;;7.28;3.95;;;;;;;31.78;30.89;93448.72;5039730;28;20045;-57
2022/06/30 10:54:01;;;;;;;6.90;4.05;;;;;;;29.55;34.25;93451.25;5030808;28;20042;-57
2022/06/30 10:56:49;;;;;;;7.93;4.20;;;;;;;29.14;34.88;93447.13;5039926;28;20482;-57
2022/06/30 10:59:25;;;;;;;6.13;3.83;;;;;;;30.69;32.59;93438.44;5052383;28;20055;-59
2022/06/30 11:02:07;;;;;;;7.05;4.28;;;;;;;30.14;33.39;93444.34;5043202;28;20507;-57
2022/06/30 11:04:35;;;;;;;5.95;3.92;;;;;;;30.57;33.31;93440.84;5051817;28;20048;-57
2022/06/30 11:07:07;;;;;;;6.97;4.00;;;;;;;30.10;33.53;93447.53;5052411;28;20040;-58
2022/06/30 11:09:57;;;;;;;6.00;4.10;;;;;;;30.52;32.23;93435.34;5050037;28;20051;-57
2022/06/30 11:12:31;;;;;;;9.73;4.10;;;;;;;31.53;31.00;93434.31;5029531;28;20037;-58
2022/06/30 11:14:59;;;;;;;6.30;4.10;;;;;;;30.10;33.59;93427.72;5031413;28;20381;-57
2022/06/30 11:17:28;;;;;;;6.38;4.03;;;;;;;30.27;33.61;93436.50;5031196;28;20406;-56
2022/06/30 11:20:01;;;;;;;8.23;4.07;;;;;;;31.17;32.02;93433.13;5031217;28;21524;-57
2022/06/30 11:22:29;;;;;;;9.88;4.25;;;;;;;31.90;31.32;93437.75;5032315;28;20092;-57
2022/06/30 11:25:09;;;;;;;5.80;3.97;;;;;;;30.06;33.58;93438.63;5032314;28;20460;-57
2022/06/30 11:27:38;;;;;;;6.65;4.20;;;;;;;29.60;34.47;93439.06;5031951;28;20049;-58
2022/06/30 11:30:12;;;;;;;6.43;3.95;;;;;;;29.57;34.89;93428.84;5031730;28;20068;-58
2022/06/30 11:32:39;;;;;;;7.47;4.38;;;;;;;29.52;35.20;93437.47;5031343;28;20057;-58
2022/06/30 11:35:06;;;;;;;5.80;4.18;;;;;;;28.29;36.39;93440.44;5025880;28;20053;-57
2022/06/30 11:37:33;;;;;;;7.43;4.30;;;;;;;29.59;34.33;93434.69;5018345;28;20483;-57
2022/06/30 11:40:03;;;;;;;6.72;4.10;;;;;;;30.88;32.95;93423.97;5022475;28;20041;-57
2022/06/30 11:42:31;;;;;;;7.20;4.15;;;;;;;31.04;32.40;93417.03;5021833;28;20050;-56
2022/06/30 11:44:58;;;;;;;6.55;4.15;;;;;;;31.48;31.58;93413.34;5033879;28;20067;-57
2022/06/30 11:47:28;;;;;;;5.22;4.13;;;;;;;31.18;31.60;93414.03;5040419;28;20427;-57